Terminal Aerodrome Forecast
Issued by NWS

Home | Current Version | Previous Version | Graphics & Text | Print | Product List | Glossary On
Versions: 1 2 3 4 5 6 7 8 9 10 11 12 13 14 15 16 17 18 19 20 21 22 23 24 25 26
567
FTUS43 KABR 031324 AAA
TAFPIR
TAF AMD
KPIR 031324Z 0313/0412 13007KT P6SM BKN070 OVC090
     FM031500 17009KT P6SM SKC
     FM032300 22006KT P6SM BKN130
     FM040600 26010KT P6SM BKN045
     FM041100 27010KT P6SM SCT045=

USA.gov is the U.S. government's official web portal to all federal, state and local government web resources and services.